createdAt,value
2019-03-21T00:00:27.366Z,11.47
2019-03-21T00:05:35.672Z,11.33
2019-03-21T00:11:23.611Z,11.53
2019-03-21T00:16:30.059Z,9.47
2019-03-21T00:21:36.744Z,11.33
2019-03-21T00:26:43.345Z,10.93
2019-03-21T00:31:49.930Z,8.57
2019-03-21T00:36:56.627Z,10.07
2019-03-21T00:42:03.116Z,9.67
2019-03-21T00:47:09.666Z,10.03
2019-03-21T00:52:16.296Z,11.57
2019-03-21T00:57:22.832Z,9.93
2019-03-21T01:02:29.579Z,10.77
2019-03-21T01:07:36.126Z,11.43
2019-03-21T01:12:42.891Z,7.00
2019-03-21T01:17:49.300Z,9.07
2019-03-21T01:22:55.883Z,7.23
2019-03-21T01:28:02.579Z,8.77
2019-03-21T01:33:09.135Z,6.87
2019-03-21T01:38:15.669Z,7.93
2019-03-21T01:43:22.204Z,8.73
2019-03-21T01:48:28.728Z,11.13
2019-03-21T01:53:35.225Z,7.57
2019-03-21T01:58:41.764Z,8.77
2019-03-21T02:03:48.358Z,8.47
2019-03-21T02:08:54.631Z,5.73
2019-03-21T02:14:02.258Z,8.07
2019-03-21T02:19:08.856Z,5.17
2019-03-21T02:24:15.544Z,12.17
2019-03-21T02:29:22.054Z,9.23
2019-03-21T02:34:28.709Z,6.00
2019-03-21T02:39:35.212Z,7.13
2019-03-21T02:44:41.910Z,9.87
2019-03-21T02:49:48.678Z,9.73
2019-03-21T02:54:55.267Z,8.07
2019-03-21T03:00:01.919Z,10.67
2019-03-21T03:05:12.239Z,9.23
2019-03-21T03:10:21.859Z,7.40
2019-03-21T03:15:29.748Z,9.17
2019-03-21T03:20:36.197Z,9.93
2019-03-21T03:25:42.892Z,9.77
2019-03-21T03:30:49.578Z,10.63
2019-03-21T03:35:56.059Z,6.93
2019-03-21T03:41:02.811Z,7.63
2019-03-21T03:46:09.329Z,12.53
2019-03-21T03:51:15.909Z,10.37
2019-03-21T03:56:22.465Z,13.47
2019-03-21T04:01:30.078Z,9.10
2019-03-21T04:06:36.601Z,11.33
2019-03-21T04:11:43.389Z,11.43
2019-03-21T04:16:53.314Z,13.60
2019-03-21T04:22:00.024Z,11.30
2019-03-21T04:27:06.465Z,15.53
2019-03-21T04:32:13.117Z,12.10
2019-03-21T04:37:19.689Z,12.03
2019-03-21T04:42:26.289Z,13.00
2019-03-21T04:47:32.991Z,10.73
2019-03-21T04:52:39.597Z,12.50
2019-03-21T04:57:46.231Z,13.83
2019-03-21T05:02:53.723Z,16.27
2019-03-21T05:08:00.226Z,18.53
2019-03-21T05:13:06.836Z,14.53
2019-03-21T05:18:16.303Z,12.73
2019-03-21T05:23:23.909Z,16.03
2019-03-21T05:28:30.516Z,15.00
2019-03-21T05:33:36.972Z,21.47
2019-03-21T05:38:43.459Z,17.33
2019-03-21T05:43:53.099Z,26.30
2019-03-21T05:48:59.701Z,23.00
2019-03-21T05:54:06.287Z,17.73
2019-03-21T05:59:12.850Z,18.73
2019-03-21T06:04:19.396Z,30.37
2019-03-21T06:09:26.016Z,19.60
2019-03-21T06:14:33.289Z,18.93
2019-03-21T06:19:56.911Z,22.10
2019-03-21T06:25:40.532Z,22.80
2019-03-21T06:30:47.088Z,45.43
2019-03-21T06:35:53.671Z,20.33
2019-03-21T06:41:00.232Z,17.83
2019-03-21T06:46:06.855Z,23.03
2019-03-21T06:51:13.527Z,21.67
2019-03-21T06:56:20.097Z,22.03
2019-03-21T07:01:28.327Z,17.63
2019-03-21T07:06:34.718Z,21.53
2019-03-21T07:11:41.205Z,19.30
2019-03-21T07:16:47.671Z,20.93
2019-03-21T07:21:54.208Z,23.17
2019-03-21T07:27:00.779Z,36.27
2019-03-21T07:32:07.703Z,46.80
2019-03-21T07:37:14.121Z,81.60
2019-03-21T07:42:20.760Z,29.90
2019-03-21T07:47:27.203Z,25.57
2019-03-21T07:52:33.694Z,19.07
2019-03-21T07:57:40.362Z,20.40
2019-03-21T08:02:46.862Z,17.87
2019-03-21T08:07:53.555Z,17.13
2019-03-21T08:13:00.153Z,17.17
2019-03-21T08:18:06.733Z,14.53
2019-03-21T08:23:13.289Z,14.83
2019-03-21T08:28:19.889Z,15.83
2019-03-21T08:33:26.401Z,13.67
2019-03-21T08:38:32.988Z,15.23
2019-03-21T08:43:39.659Z,13.27
2019-03-21T08:48:46.254Z,16.87
2019-03-21T08:53:52.818Z,16.67
2019-03-21T08:58:59.376Z,15.53
2019-03-21T09:04:06.201Z,16.37
2019-03-21T09:09:12.846Z,14.13
2019-03-21T09:14:19.484Z,13.87
2019-03-21T09:19:25.980Z,18.23
2019-03-21T09:24:32.679Z,21.93
2019-03-21T09:29:39.479Z,17.23
2019-03-21T09:34:46.021Z,14.23
2019-03-21T09:39:52.539Z,12.73
2019-03-21T09:44:59.139Z,15.13
2019-03-21T09:50:06.395Z,13.58
2019-03-21T09:55:13.186Z,13.15
2019-03-21T10:00:29.539Z,13.18
2019-03-21T10:05:36.162Z,11.55
2019-03-21T10:10:42.791Z,12.13
2019-03-21T10:15:49.329Z,12.28
2019-03-21T10:20:55.852Z,10.13
2019-03-21T10:26:02.354Z,8.40
2019-03-21T10:31:09.783Z,11.97
2019-03-21T10:36:16.381Z,12.80
2019-03-21T10:41:23.858Z,15.05
2019-03-21T10:46:30.522Z,12.88
2019-03-21T10:51:38.053Z,11.30
2019-03-21T10:56:44.757Z,16.73
2019-03-21T11:01:51.459Z,11.70
2019-03-21T11:07:02.225Z,11.88
2019-03-21T11:12:08.931Z,11.12
2019-03-21T11:17:15.608Z,11.88
2019-03-21T11:22:22.202Z,12.55
2019-03-21T11:27:28.672Z,12.98
2019-03-21T11:32:35.338Z,13.13
2019-03-21T11:37:41.941Z,15.25
2019-03-21T11:42:48.640Z,13.55
2019-03-21T11:47:55.108Z,11.35
2019-03-21T11:53:01.700Z,12.10
2019-03-21T11:58:08.381Z,12.30
2019-03-21T12:03:15.107Z,11.75
2019-03-21T12:08:21.695Z,14.20
2019-03-21T12:13:28.300Z,9.88
2019-03-21T12:18:34.945Z,14.55
2019-03-21T12:23:41.653Z,11.22
2019-03-21T12:28:48.255Z,12.80
2019-03-21T12:33:54.819Z,12.78
2019-03-21T12:39:01.403Z,10.80
2019-03-21T12:44:09.640Z,13.62
2019-03-21T12:49:16.243Z,12.93
2019-03-21T12:54:22.775Z,11.30
2019-03-21T12:59:29.525Z,11.78
2019-03-21T13:04:36.162Z,13.17
2019-03-21T13:09:42.792Z,11.53
2019-03-21T13:14:49.492Z,13.47
2019-03-21T13:19:56.064Z,10.13
2019-03-21T13:25:02.625Z,10.97
2019-03-21T13:30:09.501Z,13.20
2019-03-21T13:35:16.209Z,12.73
2019-03-21T13:40:22.779Z,12.70
2019-03-21T13:45:29.337Z,14.67
2019-03-21T13:50:35.765Z,13.97
2019-03-21T13:55:42.342Z,12.30
2019-03-21T14:00:49.042Z,14.60
2019-03-21T14:05:56.586Z,12.47
2019-03-21T14:11:03.138Z,11.33
2019-03-21T14:16:09.802Z,13.33
2019-03-21T14:21:18.717Z,13.40
2019-03-21T14:26:25.157Z,10.40
2019-03-21T14:31:31.727Z,13.77
2019-03-21T14:36:38.333Z,13.43
2019-03-21T14:41:45.920Z,19.73
2019-03-21T14:46:52.548Z,14.67
2019-03-21T14:51:59.130Z,12.23
2019-03-21T14:57:05.700Z,14.33
2019-03-21T15:02:12.404Z,12.80
2019-03-21T15:07:18.897Z,15.03
2019-03-21T15:12:25.492Z,12.07
2019-03-21T15:17:32.095Z,17.37
2019-03-21T15:22:38.629Z,15.00
2019-03-21T15:27:45.300Z,17.00
2019-03-21T15:32:52.184Z,11.73
2019-03-21T15:37:58.904Z,14.87
2019-03-21T15:43:05.709Z,17.40
2019-03-21T15:48:12.424Z,16.33
2019-03-21T15:53:19.005Z,14.73
2019-03-21T15:58:25.588Z,16.63
2019-03-21T16:03:32.254Z,16.53
2019-03-21T16:08:38.943Z,13.17
2019-03-21T16:13:45.544Z,16.77
2019-03-21T16:18:52.201Z,16.67
2019-03-21T16:24:04.979Z,13.43
2019-03-21T16:29:09.867Z,14.87
2019-03-21T16:34:15.361Z,19.30
2019-03-21T16:39:22.030Z,67.57
2019-03-21T16:44:28.655Z,40.53
2019-03-21T16:49:35.349Z,17.50
2019-03-21T16:54:41.910Z,22.97
2019-03-21T16:59:48.701Z,30.57
2019-03-21T17:04:55.229Z,27.00
2019-03-21T17:10:01.949Z,24.63
2019-03-21T17:15:08.572Z,27.67
2019-03-21T17:20:15.265Z,28.97
2019-03-21T17:25:21.931Z,32.03
2019-03-21T17:30:28.649Z,38.83
2019-03-21T17:35:35.306Z,26.50
2019-03-21T17:40:41.958Z,25.40
2019-03-21T17:45:48.483Z,32.80
2019-03-21T17:50:56.013Z,24.43
2019-03-21T17:56:02.672Z,43.30
2019-03-21T18:01:09.360Z,28.60
2019-03-21T18:06:15.991Z,40.27
2019-03-21T18:11:22.577Z,56.33
2019-03-21T18:16:29.249Z,52.23
2019-03-21T18:21:35.848Z,33.53
2019-03-21T18:26:42.623Z,37.00
2019-03-21T18:31:49.334Z,36.13
2019-03-21T18:36:55.993Z,34.33
2019-03-21T18:42:02.638Z,28.07
2019-03-21T18:47:09.181Z,31.73
2019-03-21T18:52:15.809Z,32.73
2019-03-21T18:57:22.342Z,35.07
2019-03-21T19:02:29.037Z,35.80
2019-03-21T19:07:36.662Z,34.97
2019-03-21T19:12:43.219Z,34.33
2019-03-21T19:17:49.967Z,43.00
2019-03-21T19:22:56.578Z,35.97
2019-03-21T19:28:04.211Z,35.83
2019-03-21T19:33:10.916Z,38.13
2019-03-21T19:38:17.624Z,40.43
2019-03-21T19:43:24.254Z,52.97
2019-03-21T19:48:30.749Z,34.87
2019-03-21T19:53:37.376Z,49.10
2019-03-21T19:58:43.850Z,34.80
2019-03-21T20:03:50.569Z,28.47
2019-03-21T20:08:57.122Z,19.83
2019-03-21T20:14:04.137Z,23.60
2019-03-21T20:19:10.904Z,23.20
2019-03-21T20:24:17.463Z,24.27
2019-03-21T20:29:24.094Z,21.93
2019-03-21T20:34:30.838Z,18.47
2019-03-21T20:39:37.484Z,23.40
2019-03-21T20:44:44.144Z,24.53
2019-03-21T20:49:50.733Z,22.17
2019-03-21T20:54:57.422Z,20.50
2019-03-21T21:00:04.236Z,21.77
2019-03-21T21:05:12.623Z,26.50
2019-03-21T21:10:19.538Z,22.90
2019-03-21T21:15:26.212Z,18.83
2019-03-21T21:20:32.888Z,19.60
2019-03-21T21:25:39.469Z,26.40
2019-03-21T21:30:46.002Z,21.13
2019-03-21T21:35:52.578Z,21.50
2019-03-21T21:40:59.230Z,23.23
2019-03-21T21:46:06.743Z,21.87
2019-03-21T21:51:13.251Z,22.77
2019-03-21T21:56:19.952Z,26.50
2019-03-21T22:01:26.593Z,27.57
2019-03-21T22:06:33.116Z,25.47
2019-03-21T22:11:39.792Z,28.70
2019-03-21T22:16:46.384Z,25.97
2019-03-21T22:21:52.970Z,24.90
2019-03-21T22:27:00.393Z,28.63
2019-03-21T22:32:06.885Z,25.90
2019-03-21T22:37:13.452Z,25.27
2019-03-21T22:42:20.131Z,26.37
2019-03-21T22:47:26.738Z,27.30
2019-03-21T22:52:33.392Z,26.70
2019-03-21T22:57:39.949Z,29.87
2019-03-21T23:02:46.701Z,27.97
2019-03-21T23:07:53.364Z,31.77
2019-03-21T23:12:59.945Z,27.20
2019-03-21T23:18:06.634Z,28.90
2019-03-21T23:23:13.179Z,29.80
2019-03-21T23:28:19.806Z,29.40
2019-03-21T23:33:26.417Z,27.37
2019-03-21T23:38:33.100Z,27.37
2019-03-21T23:43:39.687Z,28.03
2019-03-21T23:48:46.270Z,29.83
2019-03-21T23:53:52.968Z,33.17
2019-03-21T23:58:59.595Z,29.20
